Anapa, Russia

2:54 PM MSK on July 28, 2016 (GMT +0300)
Vityazevo | | Change Station

Elev 174 ft 45.00 °N, 37.35 °E | Updated 24 minutes ago

Partly Cloudy
Partly Cloudy
91 °F
Feels Like 92 °F
N
16
Wind Variable Wind from NE
Gusts mph

Today
High -- | Low -- °F
--% Chance of Precip.
Yesterday
High -- | Low -- °F
Precip. -- in
Pressure 29.89 in
Visibility 6.2 miles
Clouds
Heat Index 92 °F
Dew Point 63 °F
Humidity 38%
Rainfall 0.00 in
Snow Depth Not available.
5:12 AM 8:01 PM
Waning Crescent, 33% visible
METAR URKA 281130Z 04007MPS 9999 SCT/// 33/17 Q1012 R04/010070 RMK QFE755/1007
Pressure 29.89 in
Visibility 6.2 miles
Clouds
Heat Index 92 °F
Dew Point 63 °F
Humidity 38%
Rainfall 0.00 in
Snow Depth Not available.
5:12 AM 8:01 PM
Waning Crescent, 33% visible
METAR URKA 281130Z 04007MPS 9999 SCT/// 33/17 Q1012 R04/010070 RMK QFE755/1007

10-Day Weather Forecast

×

Almanac

Astronomy

Jul. 28, 2016 Rise Set
Actual Time
Civil Twilight
Nautical Twilight
Astronomical Twilight
Moon
Length of Visible Light
Length of Day
Tomorrow will be .
, % of the Moon is Illuminated

Today's Extremes

Country Highs Country Lows

Community

WunderPhotos

Upload Photos

1,928,096 photos uploaded!

WunderBlog® & News

Nearby

Air Quality

  Air Quality AQ Index Pollutant
Not available.

Snow Depth

Station Depth Elevation

Earthquake Activity

City Distance Mag. Time & Date
Minimum magnitude displayed is 2.5.

Coastal Water Temperatures

Place Temperature

Stations

Nearby Weather Stations

Station Location Temp. Windchill Dew Point Humidity Wind Precip. Elev Updated Type